createdAt,value
2022-11-02T00:00:52.296Z,100619.53
2022-11-02T00:05:14.434Z,100622.01
2022-11-02T00:09:23.381Z,100624.97
2022-11-02T00:13:31.653Z,100628.80
2022-11-02T00:17:40.062Z,100631.52
2022-11-02T00:21:48.125Z,100637.40
2022-11-02T00:25:57.919Z,100640.55
2022-11-02T00:30:09.540Z,100645.91
2022-11-02T00:34:18.459Z,100647.38
2022-11-02T00:38:26.637Z,100649.09
2022-11-02T00:42:35.298Z,100650.59
2022-11-02T00:46:43.472Z,100656.84
2022-11-02T00:50:51.414Z,100658.73
2022-11-02T00:54:59.937Z,100658.05
2022-11-02T00:59:09.106Z,100657.77
2022-11-02T01:03:19.045Z,100658.38
2022-11-02T01:07:27.272Z,100659.12
2022-11-02T01:11:36.711Z,100659.16
2022-11-02T01:15:44.536Z,100663.50
2022-11-02T01:19:53.499Z,100661.08
2022-11-02T01:24:01.485Z,100660.73
2022-11-02T01:28:09.411Z,100659.66
2022-11-02T01:32:18.604Z,100652.80
2022-11-02T01:36:27.210Z,100660.56
2022-11-02T01:40:40.796Z,100663.34
2022-11-02T01:44:52.020Z,100659.41
2022-11-02T01:49:04.064Z,100660.20
2022-11-02T01:53:12.429Z,100658.29
2022-11-02T01:57:23.102Z,100664.64
2022-11-02T02:01:32.497Z,100660.88
2022-11-02T02:05:44.736Z,100659.48
2022-11-02T02:09:53.641Z,100663.00
2022-11-02T02:14:04.164Z,100663.26
2022-11-02T02:18:21.268Z,100664.66
2022-11-02T02:22:52.719Z,100661.75
2022-11-02T02:27:15.528Z,100664.01
2022-11-02T02:31:29.811Z,100664.62
2022-11-02T02:35:43.990Z,100661.13
2022-11-02T02:39:56.376Z,100661.05
2022-11-02T02:44:05.593Z,100665.49
2022-11-02T02:48:17.171Z,100671.98
2022-11-02T02:52:27.315Z,100667.48
2022-11-02T02:56:40.516Z,100663.38
2022-11-02T03:00:48.759Z,100664.15
2022-11-02T03:04:57.275Z,100667.01
2022-11-02T03:09:15.605Z,100671.85
2022-11-02T03:13:43.619Z,100669.33
2022-11-02T03:18:00.490Z,100672.85
2022-11-02T03:22:14.064Z,100677.12
2022-11-02T03:26:27.363Z,100675.47
2022-11-02T03:30:40.512Z,100678.45
2022-11-02T03:34:50.956Z,100681.18
2022-11-02T03:39:02.959Z,100681.30
2022-11-02T03:43:11.084Z,100683.98
2022-11-02T03:47:20.135Z,100684.21
2022-11-02T03:51:29.046Z,100690.20
2022-11-02T03:55:41.452Z,100690.02
2022-11-02T03:59:49.175Z,100692.79
2022-11-02T04:03:56.944Z,100693.88
2022-11-02T04:08:24.815Z,100698.21
2022-11-02T04:12:49.779Z,100700.34
2022-11-02T04:17:11.401Z,100700.65
2022-11-02T04:21:19.864Z,100701.05
2022-11-02T04:25:27.887Z,100701.04
2022-11-02T04:29:36.195Z,100701.13
2022-11-02T04:33:44.209Z,100696.08
2022-11-02T04:38:09.877Z,100695.04
2022-11-02T04:42:17.936Z,100693.55
2022-11-02T04:46:27.744Z,100694.56
2022-11-02T04:50:36.820Z,100700.51
2022-11-02T04:54:44.683Z,100692.52
2022-11-02T04:58:54.533Z,100694.58
2022-11-02T05:03:03.916Z,100693.44
2022-11-02T05:07:14.254Z,100696.85
2022-11-02T05:11:23.136Z,100694.94
2022-11-02T05:15:30.688Z,100699.70
2022-11-02T05:19:38.560Z,100700.59
2022-11-02T05:23:46.822Z,100697.79
2022-11-02T05:27:54.779Z,100703.23
2022-11-02T05:32:02.699Z,100708.96
2022-11-02T05:36:13.168Z,100715.98
2022-11-02T05:40:21.436Z,100710.08
2022-11-02T05:44:29.554Z,100714.42
2022-11-02T05:48:37.635Z,100717.17
2022-11-02T05:52:46.188Z,100725.06
2022-11-02T05:56:55.580Z,100722.89
2022-11-02T06:01:05.254Z,100727.69
2022-11-02T06:05:13.798Z,100727.15
2022-11-02T06:09:21.594Z,100728.35
2022-11-02T06:13:29.188Z,100729.30
2022-11-02T06:17:42.297Z,100739.10
2022-11-02T06:21:50.396Z,100743.23
2022-11-02T06:26:00.023Z,100743.45
2022-11-02T06:30:10.131Z,100749.23
2022-11-02T06:34:22.376Z,100749.60
2022-11-02T06:38:31.761Z,100746.99
2022-11-02T06:42:45.442Z,100745.86
2022-11-02T06:47:05.797Z,100751.13
2022-11-02T06:51:13.544Z,100755.95
2022-11-02T06:55:24.815Z,100764.48
2022-11-02T06:59:35.350Z,100766.02
2022-11-02T07:03:47.013Z,100772.27
2022-11-02T07:08:04.039Z,100774.63
2022-11-02T07:12:13.691Z,100775.46
2022-11-02T07:16:23.853Z,100775.94
2022-11-02T07:20:35.489Z,100780.39
2022-11-02T07:24:43.450Z,100786.68
2022-11-02T07:28:55.227Z,100777.89
2022-11-02T07:33:09.277Z,100782.03
2022-11-02T07:37:16.823Z,100784.61
2022-11-02T07:41:25.151Z,100783.46
2022-11-02T07:45:35.099Z,100779.98
2022-11-02T07:49:44.689Z,100774.44
2022-11-02T07:53:53.846Z,100778.77
2022-11-02T07:58:11.443Z,100774.01
2022-11-02T08:02:21.139Z,100772.38
2022-11-02T08:06:29.097Z,100766.23
2022-11-02T08:10:40.424Z,100767.22
2022-11-02T08:14:49.107Z,100764.72
2022-11-02T08:18:59.895Z,100768.67
2022-11-02T08:23:11.069Z,100769.87
2022-11-02T08:27:20.781Z,100772.55
2022-11-02T08:31:31.250Z,100774.11
2022-11-02T08:35:43.389Z,100774.86
2022-11-02T08:39:51.608Z,100768.61
2022-11-02T08:44:02.068Z,100765.75
2022-11-02T08:48:12.613Z,100762.40
2022-11-02T08:52:25.486Z,100760.36
2022-11-02T08:56:33.386Z,100759.44
2022-11-02T09:00:44.110Z,100755.15
2022-11-02T09:04:58.158Z,100756.93
2022-11-02T09:09:13.309Z,100753.12
2022-11-02T09:13:26.299Z,100752.26
2022-11-02T09:17:45.177Z,100746.96
2022-11-02T09:21:53.541Z,100748.76
2022-11-02T09:26:03.554Z,100747.77
2022-11-02T09:30:12.283Z,100743.66
2022-11-02T09:34:20.472Z,100744.92
2022-11-02T09:38:29.411Z,100741.94
2022-11-02T09:42:42.419Z,100742.32
2022-11-02T09:47:17.740Z,100747.10
2022-11-02T09:51:22.691Z,100752.64
2022-11-02T09:55:36.166Z,100751.96
2022-11-02T09:59:46.615Z,100753.69
2022-11-02T10:04:18.457Z,100746.80
2022-11-02T10:08:40.358Z,100751.63
2022-11-02T10:12:55.128Z,100755.14
2022-11-02T10:17:11.483Z,100754.25
2022-11-02T10:21:23.239Z,100753.83
2022-11-02T10:25:37.200Z,100749.27
2022-11-02T10:29:50.504Z,100752.83
2022-11-02T10:34:01.267Z,100751.22
2022-11-02T10:38:20.988Z,100751.20
2022-11-02T10:43:07.724Z,100750.20
2022-11-02T10:47:23.383Z,100741.34
2022-11-02T10:51:41.383Z,100738.57
2022-11-02T10:55:56.932Z,100742.48
2022-11-02T11:00:25.690Z,100739.00
2022-11-02T11:04:34.483Z,100740.17
2022-11-02T11:08:44.571Z,100737.95
2022-11-02T11:12:58.350Z,100738.66
2022-11-02T11:21:46.549Z,100733.72
2022-11-02T11:26:05.047Z,100724.94
2022-11-02T11:35:04.210Z,100713.54
2022-11-02T11:39:29.900Z,100711.27
2022-11-02T11:43:40.987Z,100703.46
2022-11-02T11:47:48.934Z,100702.04
2022-11-02T11:52:05.784Z,100693.64
2022-11-02T11:56:29.107Z,100686.71
2022-11-02T12:00:37.102Z,100682.14
2022-11-02T12:04:44.930Z,100682.37
2022-11-02T12:09:03.944Z,100679.56
2022-11-02T12:13:31.077Z,100679.41
2022-11-02T12:18:04.573Z,100672.17
2022-11-02T12:22:21.579Z,100670.16
2022-11-02T12:26:37.026Z,100667.13
2022-11-02T12:30:53.849Z,100664.88
2022-11-02T12:35:29.764Z,100665.15
2022-11-02T12:39:48.755Z,100672.94
2022-11-02T12:43:59.714Z,100673.06
2022-11-02T12:48:11.017Z,100676.05
2022-11-02T12:52:32.475Z,100671.14
2022-11-02T12:56:54.016Z,100674.84
2022-11-02T13:01:07.058Z,100676.06
2022-11-02T13:05:30.283Z,100676.35
2022-11-02T13:09:40.221Z,100679.88
2022-11-02T13:13:52.381Z,100681.90
2022-11-02T13:18:03.314Z,100687.71
2022-11-02T13:22:20.156Z,100693.34
2022-11-02T13:26:39.756Z,100696.94
2022-11-02T13:30:49.684Z,100698.89
2022-11-02T13:34:57.745Z,100698.14
2022-11-02T13:39:15.512Z,100697.60
2022-11-02T13:44:06.223Z,100701.19
2022-11-02T13:48:42.594Z,100700.75
2022-11-02T13:52:56.407Z,100705.02
2022-11-02T13:57:07.607Z,100701.81
2022-11-02T14:01:23.525Z,100701.38
2022-11-02T14:05:33.458Z,100697.55
2022-11-02T14:09:42.972Z,100699.27
2022-11-02T14:14:23.286Z,100700.41
2022-11-02T14:18:33.463Z,100701.85
2022-11-02T14:22:41.261Z,100701.65
2022-11-02T14:27:00.586Z,100706.03
2022-11-02T14:31:33.422Z,100716.21
2022-11-02T14:35:44.922Z,100720.55
2022-11-02T14:40:03.018Z,100723.13
2022-11-02T14:44:36.121Z,100729.36
2022-11-02T14:48:51.428Z,100730.55
2022-11-02T14:53:06.124Z,100738.77
2022-11-02T14:57:32.826Z,100735.73
2022-11-02T15:01:55.483Z,100738.13
2022-11-02T15:06:05.863Z,100742.66
2022-11-02T15:10:53.618Z,100750.24
2022-11-02T15:15:27.293Z,100745.29
2022-11-02T15:19:47.273Z,100755.56
2022-11-02T15:24:18.135Z,100756.84
2022-11-02T15:28:34.972Z,100763.33
2022-11-02T15:33:02.283Z,100761.80
2022-11-02T15:37:13.241Z,100763.23
2022-11-02T15:41:29.957Z,100768.11
2022-11-02T15:46:00.369Z,100771.50
2022-11-02T15:50:35.213Z,100761.23
2022-11-02T15:54:51.545Z,100769.13
2022-11-02T15:59:22.547Z,100780.31
2022-11-02T16:03:32.960Z,100784.14
2022-11-02T16:08:05.211Z,100785.34
2022-11-02T16:12:19.981Z,100786.13
2022-11-02T16:16:35.551Z,100790.34
2022-11-02T16:20:54.252Z,100784.59
2022-11-02T16:25:10.872Z,100791.13
2022-11-02T16:29:34.154Z,100786.45
2022-11-02T16:33:49.163Z,100790.33
2022-11-02T16:37:58.766Z,100785.48
2022-11-02T16:42:14.026Z,100788.60
2022-11-02T16:46:32.314Z,100792.80
2022-11-02T16:51:04.004Z,100799.77
2022-11-02T16:55:39.248Z,100804.48
2022-11-02T16:59:56.681Z,100814.70
2022-11-02T17:04:09.103Z,100818.84
2022-11-02T17:08:31.319Z,100828.42
2022-11-02T17:12:41.129Z,100837.52
2022-11-02T17:17:05.196Z,100837.39
2022-11-02T17:21:32.847Z,100854.63
2022-11-02T17:25:41.783Z,100862.34
2022-11-02T17:29:49.871Z,100870.94
2022-11-02T17:33:57.611Z,100876.05
2022-11-02T17:38:06.258Z,100884.67
2022-11-02T17:42:35.165Z,100889.92
2022-11-02T17:46:45.732Z,100893.04
2022-11-02T17:50:55.956Z,100904.08
2022-11-02T17:55:03.763Z,100905.79
2022-11-02T17:59:11.686Z,100913.91
2022-11-02T18:03:24.262Z,100914.03
2022-11-02T18:07:34.817Z,100907.94
2022-11-02T18:11:43.180Z,100904.54
2022-11-02T18:15:51.287Z,100902.81
2022-11-02T18:19:59.375Z,100905.58
2022-11-02T18:24:08.078Z,100904.89
2022-11-02T18:28:15.439Z,100905.11
2022-11-02T18:32:24.311Z,100902.35
2022-11-02T18:36:33.072Z,100902.68
2022-11-02T18:40:40.671Z,100904.77
2022-11-02T18:44:48.333Z,100909.86
2022-11-02T18:48:55.974Z,100905.23
2022-11-02T18:53:03.699Z,100906.85
2022-11-02T18:57:11.094Z,100906.29
2022-11-02T19:01:20.134Z,100914.11
2022-11-02T19:05:45.692Z,100914.70
2022-11-02T19:09:53.585Z,100917.38
2022-11-02T19:14:01.148Z,100917.17
2022-11-02T19:18:08.999Z,100918.80
2022-11-02T19:22:17.229Z,100914.83
2022-11-02T19:30:33.549Z,100912.53
2022-11-02T19:34:41.987Z,100912.92
2022-11-02T19:38:49.954Z,100911.80
2022-11-02T19:42:57.286Z,100912.84
2022-11-02T19:47:07.574Z,100914.80
2022-11-02T19:51:19.262Z,100919.25
2022-11-02T19:55:29.654Z,100930.10
2022-11-02T19:59:37.775Z,100934.67
2022-11-02T20:03:47.839Z,100935.85
2022-11-02T20:07:56.248Z,100938.89
2022-11-02T20:12:06.010Z,100940.58
2022-11-02T20:16:15.014Z,100946.39
2022-11-02T20:20:22.717Z,100944.02
2022-11-02T20:24:30.542Z,100945.77
2022-11-02T20:28:39.813Z,100948.21
2022-11-02T20:32:47.401Z,100949.05
2022-11-02T20:36:55.661Z,100947.23
2022-11-02T20:41:12.657Z,100947.92
2022-11-02T20:45:23.723Z,100948.89
2022-11-02T20:49:49.836Z,100951.98
2022-11-02T20:53:59.302Z,100952.20
2022-11-02T20:58:07.273Z,100959.45
2022-11-02T21:02:15.678Z,100957.23
2022-11-02T21:06:25.049Z,100958.88
2022-11-02T21:10:32.863Z,100960.04
2022-11-02T21:14:40.496Z,100963.33
2022-11-02T21:18:48.264Z,100964.86
2022-11-02T21:22:58.006Z,100966.81
2022-11-02T21:27:07.251Z,100965.65
2022-11-02T21:31:17.356Z,100968.24
2022-11-02T21:35:24.733Z,100968.96
2022-11-02T21:39:32.563Z,100963.86
2022-11-02T21:43:41.614Z,100961.69
2022-11-02T21:47:52.680Z,100966.44
2022-11-02T21:52:00.401Z,100970.70
2022-11-02T21:56:10.073Z,100974.86
2022-11-02T22:00:19.434Z,100976.20
2022-11-02T22:04:31.346Z,100981.89
2022-11-02T22:08:41.881Z,100986.23
2022-11-02T22:13:07.017Z,100991.84
2022-11-02T22:17:35.408Z,100984.86
2022-11-02T22:21:46.724Z,100984.71
2022-11-02T22:26:02.921Z,100986.77
2022-11-02T22:30:12.511Z,100985.56
2022-11-02T22:34:20.147Z,100988.14
2022-11-02T22:38:45.364Z,100992.02
2022-11-02T22:42:57.488Z,100996.83
2022-11-02T22:47:05.024Z,101000.72
2022-11-02T22:51:14.206Z,101003.06
2022-11-02T22:55:21.723Z,101002.23
2022-11-02T22:59:29.372Z,101001.66
2022-11-02T23:03:37.204Z,101004.94
2022-11-02T23:07:44.740Z,101008.50
2022-11-02T23:11:52.491Z,101010.62
2022-11-02T23:16:22.839Z,101019.86
2022-11-02T23:20:30.971Z,101021.21
2022-11-02T23:24:56.726Z,101022.27
2022-11-02T23:29:21.920Z,101022.46
2022-11-02T23:33:32.059Z,101027.77
2022-11-02T23:37:40.549Z,101025.21
2022-11-02T23:41:48.564Z,101021.09
2022-11-02T23:45:56.447Z,101024.41
2022-11-02T23:50:03.846Z,101027.80
2022-11-02T23:54:30.019Z,101026.63
2022-11-02T23:58:37.635Z,101030.28
